PAPGPASI

Guest
Details From PAPG - Petersburg James A Johnson
To PASI - Sitka Rocky Gutierrez
Flight Number -
Tags Generated
Created
Modified
Stats Distance 81 nm / 149 km
Max Altitude 0 ft / 0 m
Waypoints 2
Social Downloads 0
Likes 0
Share VATSIM

Download

Looking for another format? Having issues loading an existing format? Contact us
Advertisement - Login to hide

Notes

Generated

Route

PAPG PASI

ID Type Via Altitude Latitude Longitude Leg Dist Tot Dist Heading (true) Name
O PAPG APT - 0 ft / 0 m 56.79894˚ -132.95942˚ - 0 nm - -
O PASI APT - 0 ft / 0 m 57.05347˚ -135.37303˚ 80 nm 80 nm 282° / 280° -

Altitude Profile

Advertisement - Login to hide

PAPG

Details ICAO PAPG (PSG)
Name PETERSBURG JAMES A JOHNSON
Region USA (Alaska)
Timezone America/Juneau (UTC-8.0)
Stats Elevation 105 ft / 32 m (AMSL)
Location 56.801651° -132.945289°
Runways 1
Magnetic Variation 18.748° E

METAR

PAPG 280048Z 25005KT 10SM SCT021 BKN032 OVC070 09/07 A2985 RMK AO2 RAE24 P0000

Decode

TAF

PAPG 272330Z 2800/2824 VRB05KT P6SM -SHRA SCT035 BKN050 FM280500 22005KT 6SM -SHRA BR BKN025 OVC040 TEMPO 2814/2818 4SM -SHRA BR BKN015 OVC025 FM281800 12008KT P6SM -SHRA BKN030 OVC045 AMD LTD TO CLD VIS AND WIND 2806/2815

Decode

Departure Runways

ID Width Length Bearing (true) Bearing (mag) Surface Threshold Offset Overrun Length
04 150 ft / 46 m 5,982 ft / 1,823 m 70.70° 51.95° Asphalt 0 ft / 0 m 0 ft / 0 m
22 150 ft / 46 m 5,982 ft / 1,823 m 250.73° 231.98° Asphalt 0 ft / 0 m 0 ft / 0 m

PASI

Details ICAO PASI (SIT)
Name SITKA ROCKY GUTIERREZ
Region USA (Alaska)
Timezone America/Juneau (UTC-8.0)
Stats Elevation 21 ft / 6 m (AMSL)
Location 57.047128° -135.361597°
Runways 1
Magnetic Variation 18.629° E

METAR

PASI 280053Z 00000KT 10SM -RA FEW024 BKN044 BKN110 09/06 A2982

Decode

TAF

PASI 272330Z 2800/2824 19012G20KT P6SM VCSH SCT025 BKN040 BKN080 FM280600 13008KT P6SM -SHRA SCT015 BKN025 OVC040 TEMPO 2809/2813 20012G20KT 5SM SHRA BR BKN015 FM281300 18009G18KT 6SM -SHRA BR BKN018 OVC030 FM281600 14012G20KT P6SM -SHRA SCT020 OVC030

Decode

Destination Runways

ID Width Length Bearing (true) Bearing (mag) Surface Threshold Offset Overrun Length
11 150 ft / 46 m 6,485 ft / 1,977 m 135.57° 116.94° Asphalt 0 ft / 0 m 0 ft / 0 m
29 150 ft / 46 m 6,485 ft / 1,977 m 315.59° 296.96° Asphalt 0 ft / 0 m 0 ft / 0 m

Approach Navaids

Runway Type Ident Frequency Range Bearing (true) Bearing (mag) Slope Elevation
11 Localiser ISIT 108.90 MHz 18 nm / 33 km 143.51° 124.88° - 15 ft / 5 m (AMSL)
11 DME ISIT 108.90 MHz 18 nm / 33 km - - - 34 ft / 10 m (AMSL)